• Join FlightAware (Why Join?)
  • Login
  • US Flag 
01:50PM EDT


 

Airport Tracker/Info


-or-


 

Live Flight TrackerFlight Track Log ✈ EJA831 ✈ 06-Jun-2013 ✈ KSNA - KAVQ

Flight Track Log - Related Links

Times and Time Zones

All times are in EDT time to prevent confusion due to time zone crossing. See the EJA831 flight status page for this flight to view local times or setup timezone preferences in your user account.

Time Position Orientation Groundspeed Altitude Reporting Facility
EDT Latitude Longitude Course Direction KTS MPH feet Rate Location/Type
12:16PM 33.5667 -117.8833 180° South 259 298 5,000  Level Southern California TRACON
12:16PM 33.5458 -117.8828 179° South 252 290 5,700 1,620 Climbing Los Angeles Center
12:17PM 33.5197 -117.8089 113° Southeast 262 302 7,200 2,100 Climbing Los Angeles Center
12:18PM 33.5381 -117.7225 76° East 267 307 10,100 2,280 Climbing Los Angeles Center
12:19PM 33.5575 -117.6233 77° East 294 338 12,000 1,860 Climbing Los Angeles Center
12:20PM 33.5387 -117.5415 66° East  Level FlightAware Approximate
12:20PM 33.5669 -117.5144 84° East 325 374 14,000  Level Los Angeles Center
12:21PM 33.5719 -117.3997 87° East 343 395 16,000 2,160 Climbing Los Angeles Center
12:22PM 33.5792 -117.2592 86° East 353 406 18,500 2,100 Climbing Los Angeles Center
12:23PM 33.5842 -117.1414 87° East 358 412 20,400 1,920 Climbing Los Angeles Center
12:24PM 33.5906 -117.0169 86° East 366 421 22,500 1,980 Climbing Los Angeles Center
12:25PM 33.5947 -116.8931 88° East 372 428 24,500 1,740 Climbing Los Angeles Center
12:26PM 33.6022 -116.7667 86° East 376 433 26,200 1,500 Climbing Los Angeles Center
12:27PM 33.6106 -116.6322 86° East 388 447 27,700 1,440 Climbing Los Angeles Center
12:29PM 33.6161 -116.4672 88° East 409 471 29,500 1,380 Climbing Los Angeles Center
12:30PM 33.6233 -116.2997 87° East 416 479 30,900 720 Climbing Los Angeles Center
12:31PM 33.6286 -116.1492 88° East 442 509 31,000  Climbing Los Angeles Center
12:32PM 33.6244 -115.9919 92° East 465 535 31,000  Level Los Angeles Center
12:33PM 33.6214 -115.8364 91° East 466 536 31,000  Level Los Angeles Center
12:34PM 33.6189 -115.6861 91° East 451 519 31,000  Level Los Angeles Center
12:35PM 33.6144 -115.5186 92° East 421 484 31,000  Level Los Angeles Center
12:36PM 33.6117 -115.3847 91° East 404 465 31,000  Level Los Angeles Center
12:37PM 33.6072 -115.2403 92° East 429 494 31,000  Level Los Angeles Center
12:38PM 33.6028 -115.0872 92° East 456 525 31,000  Level Los Angeles Center
12:39PM 33.5992 -114.9325 92° East 464 534 31,000  Level Los Angeles Center
12:40PM 33.5950 -114.7769 92° East 466 536 31,000  Level Los Angeles Center
12:41PM 33.5792 -114.5911 96° East 468 539 31,000  Level Los Angeles Center
12:42PM 33.5661 -114.4350 96° East 470 541 31,000  Level Los Angeles Center
12:43PM 33.5519 -114.2817 96° East 465 535 31,000  Level Los Angeles Center
12:44PM 33.5386 -114.1264 96° East 467 537 31,000  Level Los Angeles Center
12:45PM 33.5236 -113.9878 97° East 469 540 31,000  Level Albuquerque Center
12:46PM 33.4669 -113.8467 116° Southeast 471 542 31,000  Level Albuquerque Center
12:47PM 33.4072 -113.7089 117° Southeast 469 540 31,000  Level Albuquerque Center
12:48PM 33.3486 -113.5703 117° Southeast 467 537 31,000  Level Albuquerque Center
12:49PM 33.2881 -113.4303 117° Southeast 471 542 31,000  Level Albuquerque Center
12:50PM 33.2281 -113.2917 117° Southeast 471 542 31,000 -360 Level Albuquerque Center
12:51PM 33.1556 -113.1256 117° Southeast 470 541 30,300 -1,380 Descending Albuquerque Center
12:52PM 33.0958 -112.9892 118° Southeast 466 536 28,200 -2,040 Descending Albuquerque Center
12:53PM 33.0378 -112.8564 118° Southeast 456 525 26,200 -1,080 Descending Albuquerque Center
12:54PM 32.9806 -112.7269 118° Southeast 446 513 26,000 -120 Descending Albuquerque Center
12:55PM 32.9272 -112.5933 115° Southeast 445 512 26,000  Level Albuquerque Center
12:56PM 32.8761 -112.4569 114° Southeast 448 516 26,000 -60 Level Albuquerque Center
12:57PM 32.8264 -112.3194 113° Southeast 451 519 25,900 -1,500 Descending Albuquerque Center
12:58PM 32.7739 -112.1792 114° Southeast 442 509 22,900 -2,940 Descending Albuquerque Center
12:59PM 32.7275 -112.0550 114° Southeast 424 488 19,900 -3,300 Descending Albuquerque Center
01:00PM 32.6744 -111.9131 114° Southeast 400 460 16,200 -3,300 Descending Albuquerque Center
01:01PM 32.6358 -111.8056 113° Southeast 366 421 13,200 -2,880 Descending Albuquerque Center
01:02PM 32.5978 -111.7108 115° Southeast 333 383 10,300 -1,920 Descending Albuquerque Center
01:04PM 32.5656 -111.6239 114° Southeast 296 341 9,300 -720 Descending Albuquerque Center
01:04PM 32.5394 -111.5644 118° Southeast 287 330 9,100 -420 Descending Albuquerque Center
01:05PM 32.5325 -111.5392 108° East 285 328 8,900 -1,620 Descending Albuquerque Center
01:05PM 32.5075 -111.4744 115° Southeast 279 321 7,500 -1,560 Descending Albuquerque Center
01:06PM 32.5031 -111.4564 106° East 279 321 7,300 -1,320 Descending Albuquerque Center
01:06PM 32.4869 -111.4014 109° East 241 277 6,200 -1,380 Descending Albuquerque Center
01:07PM 32.4828 -111.3722 100° East 247 284 5,900 -1,140 Descending Albuquerque Center
01:07PM 32.4750 -111.3392 106° East 204 235 5,100 -1,080 Descending Albuquerque Center
01:08PM 32.4706 -111.3067 99° East 218 251 4,800 -1,380 Descending Albuquerque Center
01:08PM 32.4583 -111.2856 124° Southeast 178 205 3,700 -1,680 Descending Albuquerque Center
01:09PM 32.4550 -111.2614 99° East 193 222 3,100 -1,140 Descending Albuquerque Center
01:09PM 32.4389 -111.2503 150° Southeast 136 157 2,600 -600 Descending Albuquerque Center
01:10PM 32.4319 -111.2200 105° East 174 200 2,500 -240 Descending Albuquerque Center
01:12PM 32.4096 -111.2184 115° Southeast  Level Estimated
01:19PM 32.4096 -111.2184 115° Southeast  Level Estimated